Terminal Aerodrome Forecast
Issued by NWS

Home | Current Version | Previous Version | Text Only | Print | Product List | Glossary On
Versions: 1 2 3 4 5 6 7 8 9 10 11 12 13 14 15 16 17 18 19
422
FTUS45 KRIW 241845 AAA
TAFJAC
TAF AMD
KJAC 241845Z 2419/2518 21011KT P6SM VCTS SCT050CB BKN090
      TEMPO 2419/2421 21020G32KT -TSRA BKN050CB
     FM242100 23014G24KT 5SM -SHRA VCTS SCT025 OVC035CB
     FM250100 VRB06KT P6SM VCSH SCT040
     FM250900 VRB03KT P6SM SCT009 BKN020
     FM251300 19006KT P6SM -SHRA BKN030
      AMD LTD TO CLD VIS AND WIND=

USA.gov is the U.S. government's official web portal to all federal, state and local government web resources and services.